sensor_id;sensor_type;location;lat;lon;timestamp;temperature;humidity
22607;DHT22;11470;20.968;105.834;2023-10-19T00:03:39;26.50;99.90
22607;DHT22;11470;20.968;105.834;2023-10-19T00:08:48;26.60;99.90
22607;DHT22;11470;20.968;105.834;2023-10-19T00:13:58;26.80;99.90
22607;DHT22;11470;20.968;105.834;2023-10-19T00:19:12;27.00;99.90
22607;DHT22;11470;20.968;105.834;2023-10-19T00:24:24;27.20;99.90
22607;DHT22;11470;20.968;105.834;2023-10-19T00:29:29;27.30;99.90
22607;DHT22;11470;20.968;105.834;2023-10-19T00:34:44;27.40;99.90
22607;DHT22;11470;20.968;105.834;2023-10-19T00:39:56;27.50;99.90
22607;DHT22;11470;20.968;105.834;2023-10-19T00:45:18;27.40;99.90
22607;DHT22;11470;20.968;105.834;2023-10-19T00:50:30;27.50;99.90
22607;DHT22;11470;20.968;105.834;2023-10-19T00:55:36;27.70;99.90
22607;DHT22;11470;20.968;105.834;2023-10-19T01:00:41;28.10;99.90
22607;DHT22;11470;20.968;105.834;2023-10-19T01:05:48;28.40;99.90
22607;DHT22;11470;20.968;105.834;2023-10-19T01:10:53;28.50;99.90
22607;DHT22;11470;20.968;105.834;2023-10-19T01:15:58;28.90;99.90
22607;DHT22;11470;20.968;105.834;2023-10-19T01:21:03;29.10;99.90
22607;DHT22;11470;20.968;105.834;2023-10-19T01:26:11;29.30;99.90
22607;DHT22;11470;20.968;105.834;2023-10-19T01:31:22;29.70;99.90
22607;DHT22;11470;20.968;105.834;2023-10-19T01:36:35;29.90;99.90
22607;DHT22;11470;20.968;105.834;2023-10-19T01:41:49;30.10;99.90
22607;DHT22;11470;20.968;105.834;2023-10-19T01:46:54;30.30;99.90
22607;DHT22;11470;20.968;105.834;2023-10-19T01:52:00;30.70;99.90
22607;DHT22;11470;20.968;105.834;2023-10-19T01:57:05;31.00;99.90
22607;DHT22;11470;20.968;105.834;2023-10-19T02:02:12;31.40;99.90
22607;DHT22;11470;20.968;105.834;2023-10-19T02:07:17;31.60;99.90
22607;DHT22;11470;20.968;105.834;2023-10-19T02:12:22;31.80;99.90
22607;DHT22;11470;20.968;105.834;2023-10-19T02:17:27;31.90;99.90
22607;DHT22;11470;20.968;105.834;2023-10-19T02:22:35;31.80;99.90
22607;DHT22;11470;20.968;105.834;2023-10-19T02:27:41;31.40;99.90
22607;DHT22;11470;20.968;105.834;2023-10-19T02:32:46;31.00;99.90
22607;DHT22;11470;20.968;105.834;2023-10-19T02:37:52;30.70;99.90
22607;DHT22;11470;20.968;105.834;2023-10-19T02:42:59;30.70;99.90
22607;DHT22;11470;20.968;105.834;2023-10-19T02:48:07;30.50;99.90
22607;DHT22;11470;20.968;105.834;2023-10-19T02:53:16;30.70;99.90
22607;DHT22;11470;20.968;105.834;2023-10-19T02:58:24;31.00;99.90
22607;DHT22;11470;20.968;105.834;2023-10-19T03:03:29;31.30;99.90
22607;DHT22;11470;20.968;105.834;2023-10-19T03:08:35;31.60;99.90
22607;DHT22;11470;20.968;105.834;2023-10-19T03:13:40;31.90;99.90
22607;DHT22;11470;20.968;105.834;2023-10-19T03:18:45;31.80;99.90
22607;DHT22;11470;20.968;105.834;2023-10-19T03:23:49;31.90;99.90
22607;DHT22;11470;20.968;105.834;2023-10-19T03:28:55;32.10;99.90
22607;DHT22;11470;20.968;105.834;2023-10-19T03:33:59;32.10;99.90
22607;DHT22;11470;20.968;105.834;2023-10-19T03:39:10;32.00;99.90
22607;DHT22;11470;20.968;105.834;2023-10-19T03:44:22;32.00;99.90
22607;DHT22;11470;20.968;105.834;2023-10-19T03:49:27;31.90;99.90
22607;DHT22;11470;20.968;105.834;2023-10-19T03:54:38;32.20;99.90
22607;DHT22;11470;20.968;105.834;2023-10-19T03:59:43;32.20;99.90
22607;DHT22;11470;20.968;105.834;2023-10-19T04:04:48;32.10;99.90
22607;DHT22;11470;20.968;105.834;2023-10-19T04:09:55;32.00;99.90
22607;DHT22;11470;20.968;105.834;2023-10-19T04:15:05;32.10;99.90
22607;DHT22;11470;20.968;105.834;2023-10-19T04:20:18;33.10;99.90
22607;DHT22;11470;20.968;105.834;2023-10-19T04:25:23;34.20;99.90
22607;DHT22;11470;20.968;105.834;2023-10-19T04:30:31;34.90;99.90
22607;DHT22;11470;20.968;105.834;2023-10-19T04:35:37;35.20;99.90
22607;DHT22;11470;20.968;105.834;2023-10-19T04:40:48;35.50;99.90
22607;DHT22;11470;20.968;105.834;2023-10-19T04:45:56;36.20;99.90
22607;DHT22;11470;20.968;105.834;2023-10-19T04:51:03;36.20;99.90
22607;DHT22;11470;20.968;105.834;2023-10-19T04:56:11;36.30;99.90
22607;DHT22;11470;20.968;105.834;2023-10-19T05:01:16;37.30;99.90
22607;DHT22;11470;20.968;105.834;2023-10-19T05:06:21;36.90;99.90
22607;DHT22;11470;20.968;105.834;2023-10-19T05:11:27;37.40;99.90
22607;DHT22;11470;20.968;105.834;2023-10-19T05:16:32;38.00;99.90
22607;DHT22;11470;20.968;105.834;2023-10-19T05:21:37;37.20;99.90
22607;DHT22;11470;20.968;105.834;2023-10-19T05:26:42;36.90;99.90
22607;DHT22;11470;20.968;105.834;2023-10-19T05:31:47;37.60;99.90
22607;DHT22;11470;20.968;105.834;2023-10-19T05:36:58;39.00;99.90
22607;DHT22;11470;20.968;105.834;2023-10-19T05:42:06;39.70;99.90
22607;DHT22;11470;20.968;105.834;2023-10-19T05:47:11;39.90;97.80
22607;DHT22;11470;20.968;105.834;2023-10-19T05:52:16;40.30;99.50
22607;DHT22;11470;20.968;105.834;2023-10-19T05:57:21;38.20;99.90
22607;DHT22;11470;20.968;105.834;2023-10-19T06:02:26;37.90;99.90
22607;DHT22;11470;20.968;105.834;2023-10-19T06:07:35;36.90;99.90
22607;DHT22;11470;20.968;105.834;2023-10-19T06:12:40;37.00;99.90
22607;DHT22;11470;20.968;105.834;2023-10-19T06:17:46;35.60;99.90
22607;DHT22;11470;20.968;105.834;2023-10-19T06:22:53;36.20;99.90
22607;DHT22;11470;20.968;105.834;2023-10-19T06:27:59;37.10;99.90
22607;DHT22;11470;20.968;105.834;2023-10-19T06:33:06;36.80;99.90
22607;DHT22;11470;20.968;105.834;2023-10-19T06:38:11;38.00;99.90
22607;DHT22;11470;20.968;105.834;2023-10-19T06:43:16;38.80;99.90
22607;DHT22;11470;20.968;105.834;2023-10-19T06:48:27;39.80;99.90
22607;DHT22;11470;20.968;105.834;2023-10-19T06:53:32;39.50;99.90
22607;DHT22;11470;20.968;105.834;2023-10-19T06:58:37;39.00;99.90
22607;DHT22;11470;20.968;105.834;2023-10-19T07:03:42;38.60;99.90
22607;DHT22;11470;20.968;105.834;2023-10-19T07:08:47;39.00;99.90
22607;DHT22;11470;20.968;105.834;2023-10-19T07:13:52;39.60;99.90
22607;DHT22;11470;20.968;105.834;2023-10-19T07:18:57;38.40;99.90
22607;DHT22;11470;20.968;105.834;2023-10-19T07:24:03;36.70;99.90
22607;DHT22;11470;20.968;105.834;2023-10-19T07:29:13;37.10;99.90
22607;DHT22;11470;20.968;105.834;2023-10-19T07:34:19;36.60;99.90
22607;DHT22;11470;20.968;105.834;2023-10-19T07:39:29;35.50;99.90
22607;DHT22;11470;20.968;105.834;2023-10-19T07:44:34;35.40;99.90
22607;DHT22;11470;20.968;105.834;2023-10-19T07:49:39;35.50;99.90
22607;DHT22;11470;20.968;105.834;2023-10-19T07:54:44;35.30;99.90
22607;DHT22;11470;20.968;105.834;2023-10-19T07:59:49;34.70;99.90
22607;DHT22;11470;20.968;105.834;2023-10-19T08:04:55;34.00;99.90
22607;DHT22;11470;20.968;105.834;2023-10-19T08:10:00;33.80;99.90
22607;DHT22;11470;20.968;105.834;2023-10-19T08:15:07;33.70;99.90
22607;DHT22;11470;20.968;105.834;2023-10-19T08:20:13;33.70;99.90
22607;DHT22;11470;20.968;105.834;2023-10-19T08:26:11;33.40;99.90
22607;DHT22;11470;20.968;105.834;2023-10-19T08:31:24;33.30;99.90
22607;DHT22;11470;20.968;105.834;2023-10-19T08:36:32;33.00;99.90
22607;DHT22;11470;20.968;105.834;2023-10-19T08:41:37;33.10;99.90
22607;DHT22;11470;20.968;105.834;2023-10-19T08:46:43;33.10;99.90
22607;DHT22;11470;20.968;105.834;2023-10-19T08:51:49;33.00;99.90
22607;DHT22;11470;20.968;105.834;2023-10-19T08:56:55;33.10;99.90
22607;DHT22;11470;20.968;105.834;2023-10-19T09:02:02;32.90;99.90
22607;DHT22;11470;20.968;105.834;2023-10-19T09:07:07;32.70;99.90
22607;DHT22;11470;20.968;105.834;2023-10-19T09:12:14;32.70;99.90
22607;DHT22;11470;20.968;105.834;2023-10-19T09:17:31;32.80;99.90
22607;DHT22;11470;20.968;105.834;2023-10-19T09:22:36;32.70;99.90
22607;DHT22;11470;20.968;105.834;2023-10-19T09:27:41;32.70;99.90
22607;DHT22;11470;20.968;105.834;2023-10-19T09:32:48;32.50;99.90
22607;DHT22;11470;20.968;105.834;2023-10-19T09:37:56;32.30;99.90
22607;DHT22;11470;20.968;105.834;2023-10-19T09:43:15;32.00;99.90
22607;DHT22;11470;20.968;105.834;2023-10-19T09:48:21;31.90;99.90
22607;DHT22;11470;20.968;105.834;2023-10-19T09:53:27;31.80;99.90
22607;DHT22;11470;20.968;105.834;2023-10-19T09:58:51;31.60;99.90
22607;DHT22;11470;20.968;105.834;2023-10-19T10:03:57;31.50;99.90
22607;DHT22;11470;20.968;105.834;2023-10-19T10:09:04;31.30;99.90
22607;DHT22;11470;20.968;105.834;2023-10-19T10:14:26;31.20;99.90
22607;DHT22;11470;20.968;105.834;2023-10-19T10:19:35;31.10;99.90
22607;DHT22;11470;20.968;105.834;2023-10-19T10:24:43;30.80;99.90
22607;DHT22;11470;20.968;105.834;2023-10-19T10:29:56;30.70;99.90
22607;DHT22;11470;20.968;105.834;2023-10-19T10:35:02;30.50;99.90
22607;DHT22;11470;20.968;105.834;2023-10-19T10:40:11;30.40;99.90
22607;DHT22;11470;20.968;105.834;2023-10-19T10:45:20;30.30;99.90
22607;DHT22;11470;20.968;105.834;2023-10-19T10:50:26;30.20;99.90
22607;DHT22;11470;20.968;105.834;2023-10-19T10:55:34;30.20;99.90
22607;DHT22;11470;20.968;105.834;2023-10-19T11:00:43;30.10;99.90
22607;DHT22;11470;20.968;105.834;2023-10-19T11:05:52;30.10;99.90
22607;DHT22;11470;20.968;105.834;2023-10-19T11:11:09;29.90;99.90
22607;DHT22;11470;20.968;105.834;2023-10-19T11:16:23;29.90;99.90
22607;DHT22;11470;20.968;105.834;2023-10-19T11:21:31;29.80;99.90
22607;DHT22;11470;20.968;105.834;2023-10-19T11:26:39;29.80;99.90
22607;DHT22;11470;20.968;105.834;2023-10-19T11:31:57;29.60;99.90
22607;DHT22;11470;20.968;105.834;2023-10-19T11:37:04;29.40;99.90
22607;DHT22;11470;20.968;105.834;2023-10-19T11:42:11;29.40;99.90
22607;DHT22;11470;20.968;105.834;2023-10-19T11:47:20;29.30;99.90
22607;DHT22;11470;20.968;105.834;2023-10-19T11:52:27;29.10;99.90
22607;DHT22;11470;20.968;105.834;2023-10-19T11:57:35;29.00;99.90
22607;DHT22;11470;20.968;105.834;2023-10-19T12:02:42;28.90;99.90
22607;DHT22;11470;20.968;105.834;2023-10-19T12:07:48;28.90;99.90
22607;DHT22;11470;20.968;105.834;2023-10-19T12:12:54;28.80;99.90
22607;DHT22;11470;20.968;105.834;2023-10-19T12:18:12;28.90;99.90
22607;DHT22;11470;20.968;105.834;2023-10-19T12:23:21;28.80;99.90
22607;DHT22;11470;20.968;105.834;2023-10-19T12:28:46;28.70;99.90
22607;DHT22;11470;20.968;105.834;2023-10-19T12:33:52;28.70;99.90
22607;DHT22;11470;20.968;105.834;2023-10-19T12:39:01;28.60;99.90
22607;DHT22;11470;20.968;105.834;2023-10-19T12:44:11;28.60;99.90
22607;DHT22;11470;20.968;105.834;2023-10-19T12:49:20;28.50;99.90
22607;DHT22;11470;20.968;105.834;2023-10-19T12:55:20;28.50;99.90
22607;DHT22;11470;20.968;105.834;2023-10-19T13:00:20;28.50;99.90
22607;DHT22;11470;20.968;105.834;2023-10-19T13:05:48;28.50;99.90
22607;DHT22;11470;20.968;105.834;2023-10-19T13:11:02;28.60;99.90
22607;DHT22;11470;20.968;105.834;2023-10-19T13:16:22;28.60;99.90
22607;DHT22;11470;20.968;105.834;2023-10-19T13:21:29;28.50;99.90
22607;DHT22;11470;20.968;105.834;2023-10-19T13:26:38;28.40;99.90
22607;DHT22;11470;20.968;105.834;2023-10-19T13:31:44;28.30;99.90
22607;DHT22;11470;20.968;105.834;2023-10-19T13:36:53;28.20;99.90
22607;DHT22;11470;20.968;105.834;2023-10-19T13:42:07;28.10;99.90
22607;DHT22;11470;20.968;105.834;2023-10-19T13:47:13;28.20;99.90
22607;DHT22;11470;20.968;105.834;2023-10-19T13:52:20;28.10;99.90
22607;DHT22;11470;20.968;105.834;2023-10-19T13:57:25;28.10;99.90
22607;DHT22;11470;20.968;105.834;2023-10-19T14:02:30;28.20;99.90
22607;DHT22;11470;20.968;105.834;2023-10-19T14:07:37;28.20;99.90
22607;DHT22;11470;20.968;105.834;2023-10-19T14:12:47;28.10;99.90
22607;DHT22;11470;20.968;105.834;2023-10-19T14:18:00;28.00;99.90
22607;DHT22;11470;20.968;105.834;2023-10-19T14:29:33;28.00;99.90
22607;DHT22;11470;20.968;105.834;2023-10-19T14:41:03;28.00;99.90
22607;DHT22;11470;20.968;105.834;2023-10-19T14:46:09;28.00;99.90
22607;DHT22;11470;20.968;105.834;2023-10-19T14:51:17;28.00;99.90
22607;DHT22;11470;20.968;105.834;2023-10-19T14:56:22;28.00;99.90
22607;DHT22;11470;20.968;105.834;2023-10-19T15:01:37;28.00;99.90
22607;DHT22;11470;20.968;105.834;2023-10-19T15:06:42;28.00;99.90
22607;DHT22;11470;20.968;105.834;2023-10-19T15:11:48;28.10;99.90
22607;DHT22;11470;20.968;105.834;2023-10-19T15:16:56;28.10;99.90
22607;DHT22;11470;20.968;105.834;2023-10-19T15:22:03;27.80;99.90
22607;DHT22;11470;20.968;105.834;2023-10-19T15:27:26;27.80;99.90
22607;DHT22;11470;20.968;105.834;2023-10-19T15:32:32;27.80;99.90
22607;DHT22;11470;20.968;105.834;2023-10-19T15:37:38;27.70;99.90
22607;DHT22;11470;20.968;105.834;2023-10-19T15:42:44;27.70;99.90
22607;DHT22;11470;20.968;105.834;2023-10-19T15:47:53;27.70;99.90
22607;DHT22;11470;20.968;105.834;2023-10-19T15:52:59;27.70;99.90
22607;DHT22;11470;20.968;105.834;2023-10-19T15:58:04;27.70;99.90
22607;DHT22;11470;20.968;105.834;2023-10-19T16:03:12;27.70;99.90
22607;DHT22;11470;20.968;105.834;2023-10-19T16:08:24;27.60;99.90
22607;DHT22;11470;20.968;105.834;2023-10-19T16:13:47;27.60;99.90
22607;DHT22;11470;20.968;105.834;2023-10-19T16:18:54;27.70;99.90
22607;DHT22;11470;20.968;105.834;2023-10-19T16:24:11;28.10;99.90
22607;DHT22;11470;20.968;105.834;2023-10-19T16:29:16;28.00;99.90
22607;DHT22;11470;20.968;105.834;2023-10-19T16:34:22;27.80;99.90
22607;DHT22;11470;20.968;105.834;2023-10-19T16:39:30;28.10;99.90
22607;DHT22;11470;20.968;105.834;2023-10-19T16:44:35;28.10;99.90
22607;DHT22;11470;20.968;105.834;2023-10-19T16:49:39;28.10;99.90
22607;DHT22;11470;20.968;105.834;2023-10-19T16:55:05;28.00;99.90
22607;DHT22;11470;20.968;105.834;2023-10-19T17:00:12;27.80;99.90
22607;DHT22;11470;20.968;105.834;2023-10-19T17:05:33;27.60;99.90
22607;DHT22;11470;20.968;105.834;2023-10-19T17:10:39;27.70;99.90
22607;DHT22;11470;20.968;105.834;2023-10-19T17:22:41;27.60;99.90
22607;DHT22;11470;20.968;105.834;2023-10-19T17:27:48;27.60;99.90
22607;DHT22;11470;20.968;105.834;2023-10-19T17:32:56;27.70;99.90
22607;DHT22;11470;20.968;105.834;2023-10-19T17:38:13;27.70;99.90
22607;DHT22;11470;20.968;105.834;2023-10-19T17:43:18;27.50;99.90
22607;DHT22;11470;20.968;105.834;2023-10-19T17:48:23;27.30;99.90
22607;DHT22;11470;20.968;105.834;2023-10-19T17:53:30;27.40;99.90
22607;DHT22;11470;20.968;105.834;2023-10-19T17:58:35;27.60;99.90
22607;DHT22;11470;20.968;105.834;2023-10-19T18:03:46;27.50;99.90
22607;DHT22;11470;20.968;105.834;2023-10-19T18:08:53;27.40;99.90
22607;DHT22;11470;20.968;105.834;2023-10-19T18:14:00;27.30;99.90
22607;DHT22;11470;20.968;105.834;2023-10-19T18:19:05;27.40;99.90
22607;DHT22;11470;20.968;105.834;2023-10-19T18:24:12;27.40;99.90
22607;DHT22;11470;20.968;105.834;2023-10-19T18:29:19;27.40;99.90
22607;DHT22;11470;20.968;105.834;2023-10-19T18:34:24;27.40;99.90
22607;DHT22;11470;20.968;105.834;2023-10-19T18:39:30;27.20;99.90
22607;DHT22;11470;20.968;105.834;2023-10-19T18:44:35;27.20;99.90
22607;DHT22;11470;20.968;105.834;2023-10-19T18:49:39;27.20;99.90
22607;DHT22;11470;20.968;105.834;2023-10-19T18:54:46;27.60;99.90
22607;DHT22;11470;20.968;105.834;2023-10-19T18:59:51;27.40;99.90
22607;DHT22;11470;20.968;105.834;2023-10-19T19:04:55;27.30;99.90
22607;DHT22;11470;20.968;105.834;2023-10-19T19:10:01;27.30;99.90
22607;DHT22;11470;20.968;105.834;2023-10-19T19:15:06;27.30;99.90
22607;DHT22;11470;20.968;105.834;2023-10-19T19:20:11;27.40;99.90
22607;DHT22;11470;20.968;105.834;2023-10-19T19:25:16;27.40;99.90
22607;DHT22;11470;20.968;105.834;2023-10-19T19:30:21;27.40;99.90
22607;DHT22;11470;20.968;105.834;2023-10-19T19:35:26;27.40;99.90
22607;DHT22;11470;20.968;105.834;2023-10-19T19:40:31;27.30;99.90
22607;DHT22;11470;20.968;105.834;2023-10-19T19:45:36;27.10;99.90
22607;DHT22;11470;20.968;105.834;2023-10-19T19:50:47;27.00;99.90
22607;DHT22;11470;20.968;105.834;2023-10-19T19:55:52;27.00;99.90
22607;DHT22;11470;20.968;105.834;2023-10-19T20:00:58;27.00;99.90
22607;DHT22;11470;20.968;105.834;2023-10-19T20:06:03;27.00;99.90
22607;DHT22;11470;20.968;105.834;2023-10-19T20:11:08;27.00;99.90
22607;DHT22;11470;20.968;105.834;2023-10-19T20:16:16;26.90;99.90
22607;DHT22;11470;20.968;105.834;2023-10-19T20:21:21;27.00;99.90
22607;DHT22;11470;20.968;105.834;2023-10-19T20:26:26;27.00;99.90
22607;DHT22;11470;20.968;105.834;2023-10-19T20:31:32;27.00;99.90
22607;DHT22;11470;20.968;105.834;2023-10-19T20:36:37;26.90;99.90
22607;DHT22;11470;20.968;105.834;2023-10-19T20:41:43;26.90;99.90
22607;DHT22;11470;20.968;105.834;2023-10-19T20:46:48;26.90;99.90
22607;DHT22;11470;20.968;105.834;2023-10-19T20:51:53;26.80;99.90
22607;DHT22;11470;20.968;105.834;2023-10-19T20:56:58;26.60;99.90
22607;DHT22;11470;20.968;105.834;2023-10-19T21:02:03;26.50;99.90
22607;DHT22;11470;20.968;105.834;2023-10-19T21:07:08;26.40;99.90
22607;DHT22;11470;20.968;105.834;2023-10-19T21:12:13;26.20;99.90
22607;DHT22;11470;20.968;105.834;2023-10-19T21:17:17;26.20;99.90
22607;DHT22;11470;20.968;105.834;2023-10-19T21:22:23;26.20;99.90
22607;DHT22;11470;20.968;105.834;2023-10-19T21:27:28;26.30;99.90
22607;DHT22;11470;20.968;105.834;2023-10-19T21:32:33;26.50;99.90
22607;DHT22;11470;20.968;105.834;2023-10-19T21:37:39;26.70;99.90
22607;DHT22;11470;20.968;105.834;2023-10-19T21:42:43;26.70;99.90
22607;DHT22;11470;20.968;105.834;2023-10-19T21:47:50;26.80;99.90
22607;DHT22;11470;20.968;105.834;2023-10-19T21:52:55;27.00;99.90
22607;DHT22;11470;20.968;105.834;2023-10-19T21:58:00;26.90;99.90
22607;DHT22;11470;20.968;105.834;2023-10-19T22:03:05;26.80;99.90
22607;DHT22;11470;20.968;105.834;2023-10-19T22:08:15;26.80;99.90
22607;DHT22;11470;20.968;105.834;2023-10-19T22:13:21;26.90;99.90
22607;DHT22;11470;20.968;105.834;2023-10-19T22:18:25;26.90;99.90
22607;DHT22;11470;20.968;105.834;2023-10-19T22:23:31;27.00;99.90
22607;DHT22;11470;20.968;105.834;2023-10-19T22:28:36;26.90;99.90
22607;DHT22;11470;20.968;105.834;2023-10-19T22:33:41;26.90;99.90
22607;DHT22;11470;20.968;105.834;2023-10-19T22:38:47;26.70;99.90
22607;DHT22;11470;20.968;105.834;2023-10-19T22:43:55;26.70;99.90
22607;DHT22;11470;20.968;105.834;2023-10-19T22:49:00;26.80;99.90
22607;DHT22;11470;20.968;105.834;2023-10-19T22:54:05;26.90;99.90
22607;DHT22;11470;20.968;105.834;2023-10-19T22:59:11;26.90;99.90
22607;DHT22;11470;20.968;105.834;2023-10-19T23:04:18;26.90;99.90
22607;DHT22;11470;20.968;105.834;2023-10-19T23:09:23;26.90;99.90
22607;DHT22;11470;20.968;105.834;2023-10-19T23:14:31;27.00;99.90
22607;DHT22;11470;20.968;105.834;2023-10-19T23:19:37;27.00;99.90
22607;DHT22;11470;20.968;105.834;2023-10-19T23:24:42;27.10;99.90
22607;DHT22;11470;20.968;105.834;2023-10-19T23:29:51;27.10;99.90
22607;DHT22;11470;20.968;105.834;2023-10-19T23:34:57;27.10;99.90
22607;DHT22;11470;20.968;105.834;2023-10-19T23:40:06;27.20;99.90
22607;DHT22;11470;20.968;105.834;2023-10-19T23:45:16;27.20;99.90
22607;DHT22;11470;20.968;105.834;2023-10-19T23:50:21;27.20;99.90
22607;DHT22;11470;20.968;105.834;2023-10-19T23:55:29;27.40;99.90
